sensor_id;sensor_type;location;lat;lon;timestamp;P1;durP1;ratioP1;P2;durP2;ratioP2
787;SDS011;16074;42.708;23.312;2023-08-08T00:00:29;1.80;;;1.70;;
787;SDS011;16074;42.708;23.312;2023-08-08T00:02:57;2.10;;;2.00;;
787;SDS011;16074;42.708;23.312;2023-08-08T00:05:25;2.08;;;1.98;;
787;SDS011;16074;42.708;23.312;2023-08-08T00:07:54;2.87;;;2.27;;
787;SDS011;16074;42.708;23.312;2023-08-08T00:10:22;1.95;;;1.90;;
787;SDS011;16074;42.708;23.312;2023-08-08T00:12:51;1.95;;;1.95;;
787;SDS011;16074;42.708;23.312;2023-08-08T00:15:20;2.70;;;2.60;;
787;SDS011;16074;42.708;23.312;2023-08-08T00:17:49;2.05;;;1.95;;
787;SDS011;16074;42.708;23.312;2023-08-08T00:20:17;2.13;;;2.03;;
787;SDS011;16074;42.708;23.312;2023-08-08T00:22:46;2.20;;;2.10;;
787;SDS011;16074;42.708;23.312;2023-08-08T00:25:14;2.90;;;2.80;;
787;SDS011;16074;42.708;23.312;2023-08-08T00:27:43;1.75;;;1.70;;
787;SDS011;16074;42.708;23.312;2023-08-08T00:30:11;2.60;;;2.40;;
787;SDS011;16074;42.708;23.312;2023-08-08T00:32:42;2.80;;;2.53;;
787;SDS011;16074;42.708;23.312;2023-08-08T00:35:10;2.08;;;1.98;;
787;SDS011;16074;42.708;23.312;2023-08-08T00:37:39;2.10;;;2.10;;
787;SDS011;16074;42.708;23.312;2023-08-08T00:40:07;2.25;;;2.15;;
787;SDS011;16074;42.708;23.312;2023-08-08T00:42:36;3.95;;;2.08;;
787;SDS011;16074;42.708;23.312;2023-08-08T00:45:05;2.10;;;2.00;;
787;SDS011;16074;42.708;23.312;2023-08-08T00:47:34;2.90;;;2.53;;
787;SDS011;16074;42.708;23.312;2023-08-08T00:50:05;2.10;;;2.00;;
787;SDS011;16074;42.708;23.312;2023-08-08T00:52:34;2.35;;;2.05;;
787;SDS011;16074;42.708;23.312;2023-08-08T00:55:03;1.95;;;1.85;;
787;SDS011;16074;42.708;23.312;2023-08-08T00:57:33;1.83;;;1.80;;
787;SDS011;16074;42.708;23.312;2023-08-08T01:00:05;2.30;;;2.10;;
787;SDS011;16074;42.708;23.312;2023-08-08T01:02:36;2.45;;;2.35;;
787;SDS011;16074;42.708;23.312;2023-08-08T01:05:06;2.83;;;2.63;;
787;SDS011;16074;42.708;23.312;2023-08-08T01:07:36;2.38;;;2.28;;
787;SDS011;16074;42.708;23.312;2023-08-08T01:10:09;3.22;;;2.95;;
787;SDS011;16074;42.708;23.312;2023-08-08T01:12:41;2.20;;;2.10;;
787;SDS011;16074;42.708;23.312;2023-08-08T01:15:14;2.50;;;2.40;;
787;SDS011;16074;42.708;23.312;2023-08-08T01:17:43;2.28;;;2.17;;
787;SDS011;16074;42.708;23.312;2023-08-08T01:20:15;2.38;;;2.28;;
787;SDS011;16074;42.708;23.312;2023-08-08T01:22:45;2.50;;;2.40;;
787;SDS011;16074;42.708;23.312;2023-08-08T01:25:27;1.90;;;1.90;;
787;SDS011;16074;42.708;23.312;2023-08-08T01:27:56;2.00;;;1.90;;
787;SDS011;16074;42.708;23.312;2023-08-08T01:30:25;3.30;;;1.98;;
787;SDS011;16074;42.708;23.312;2023-08-08T01:32:53;2.67;;;2.00;;
787;SDS011;16074;42.708;23.312;2023-08-08T01:35:22;1.92;;;1.83;;
787;SDS011;16074;42.708;23.312;2023-08-08T01:37:54;1.90;;;1.80;;
787;SDS011;16074;42.708;23.312;2023-08-08T01:40:30;2.00;;;2.00;;
787;SDS011;16074;42.708;23.312;2023-08-08T01:42:59;1.95;;;1.92;;
787;SDS011;16074;42.708;23.312;2023-08-08T01:45:28;2.30;;;2.20;;
787;SDS011;16074;42.708;23.312;2023-08-08T01:47:56;1.88;;;1.77;;
787;SDS011;16074;42.708;23.312;2023-08-08T01:50:25;2.15;;;2.05;;
787;SDS011;16074;42.708;23.312;2023-08-08T01:52:53;2.70;;;2.60;;
787;SDS011;16074;42.708;23.312;2023-08-08T01:55:22;2.30;;;2.20;;
787;SDS011;16074;42.708;23.312;2023-08-08T01:57:51;2.63;;;2.53;;
787;SDS011;16074;42.708;23.312;2023-08-08T02:00:20;3.00;;;2.80;;
787;SDS011;16074;42.708;23.312;2023-08-08T02:02:49;2.88;;;2.67;;
787;SDS011;16074;42.708;23.312;2023-08-08T02:05:17;3.20;;;2.90;;
787;SDS011;16074;42.708;23.312;2023-08-08T02:07:46;2.50;;;2.40;;
787;SDS011;16074;42.708;23.312;2023-08-08T02:10:14;3.05;;;2.80;;
787;SDS011;16074;42.708;23.312;2023-08-08T02:12:42;2.80;;;2.60;;
787;SDS011;16074;42.708;23.312;2023-08-08T02:15:12;2.92;;;2.83;;
787;SDS011;16074;42.708;23.312;2023-08-08T02:17:41;2.65;;;2.55;;
787;SDS011;16074;42.708;23.312;2023-08-08T02:20:10;3.13;;;2.92;;
787;SDS011;16074;42.708;23.312;2023-08-08T02:22:39;2.50;;;2.40;;
787;SDS011;16074;42.708;23.312;2023-08-08T02:25:08;3.60;;;3.40;;
787;SDS011;16074;42.708;23.312;2023-08-08T02:27:36;3.10;;;2.90;;
787;SDS011;16074;42.708;23.312;2023-08-08T02:30:09;3.40;;;3.20;;
787;SDS011;16074;42.708;23.312;2023-08-08T02:32:39;3.50;;;3.30;;
787;SDS011;16074;42.708;23.312;2023-08-08T02:35:08;3.28;;;3.17;;
787;SDS011;16074;42.708;23.312;2023-08-08T02:37:37;3.80;;;3.60;;
787;SDS011;16074;42.708;23.312;2023-08-08T02:40:08;3.38;;;3.17;;
787;SDS011;16074;42.708;23.312;2023-08-08T02:42:37;4.20;;;3.90;;
787;SDS011;16074;42.708;23.312;2023-08-08T02:45:06;3.75;;;3.45;;
787;SDS011;16074;42.708;23.312;2023-08-08T02:47:35;4.25;;;3.95;;
787;SDS011;16074;42.708;23.312;2023-08-08T02:50:06;4.68;;;4.38;;
787;SDS011;16074;42.708;23.312;2023-08-08T02:52:34;3.90;;;3.70;;
787;SDS011;16074;42.708;23.312;2023-08-08T02:55:03;3.85;;;3.55;;
787;SDS011;16074;42.708;23.312;2023-08-08T02:57:32;4.60;;;4.30;;
787;SDS011;16074;42.708;23.312;2023-08-08T03:00:00;4.53;;;4.25;;
787;SDS011;16074;42.708;23.312;2023-08-08T03:02:36;5.47;;;5.13;;
787;SDS011;16074;42.708;23.312;2023-08-08T03:05:06;6.13;;;5.72;;
787;SDS011;16074;42.708;23.312;2023-08-08T03:07:35;5.30;;;5.00;;
787;SDS011;16074;42.708;23.312;2023-08-08T03:10:04;6.25;;;5.85;;
787;SDS011;16074;42.708;23.312;2023-08-08T03:12:33;6.35;;;5.95;;
787;SDS011;16074;42.708;23.312;2023-08-08T03:15:02;6.32;;;5.93;;
787;SDS011;16074;42.708;23.312;2023-08-08T03:17:31;6.30;;;5.85;;
787;SDS011;16074;42.708;23.312;2023-08-08T03:20:01;6.25;;;5.85;;
787;SDS011;16074;42.708;23.312;2023-08-08T03:22:34;5.80;;;5.50;;
787;SDS011;16074;42.708;23.312;2023-08-08T03:25:03;6.60;;;6.10;;
787;SDS011;16074;42.708;23.312;2023-08-08T03:27:32;7.53;;;6.97;;
787;SDS011;16074;42.708;23.312;2023-08-08T03:30:00;7.93;;;7.32;;
787;SDS011;16074;42.708;23.312;2023-08-08T03:32:35;8.10;;;7.50;;
787;SDS011;16074;42.708;23.312;2023-08-08T03:35:03;7.43;;;6.95;;
787;SDS011;16074;42.708;23.312;2023-08-08T03:37:34;7.75;;;7.15;;
787;SDS011;16074;42.708;23.312;2023-08-08T03:40:03;8.45;;;7.65;;
787;SDS011;16074;42.708;23.312;2023-08-08T03:42:34;7.85;;;7.35;;
787;SDS011;16074;42.708;23.312;2023-08-08T03:45:03;9.07;;;8.35;;
787;SDS011;16074;42.708;23.312;2023-08-08T03:47:32;9.63;;;8.73;;
787;SDS011;16074;42.708;23.312;2023-08-08T03:50:01;8.13;;;7.55;;
787;SDS011;16074;42.708;23.312;2023-08-08T03:52:31;8.45;;;7.85;;
787;SDS011;16074;42.708;23.312;2023-08-08T03:55:02;8.30;;;7.80;;
787;SDS011;16074;42.708;23.312;2023-08-08T03:57:32;9.18;;;8.57;;
787;SDS011;16074;42.708;23.312;2023-08-08T04:00:00;8.82;;;8.23;;
787;SDS011;16074;42.708;23.312;2023-08-08T04:02:39;10.00;;;9.20;;
787;SDS011;16074;42.708;23.312;2023-08-08T04:05:07;8.73;;;8.13;;
787;SDS011;16074;42.708;23.312;2023-08-08T04:07:36;9.60;;;8.80;;
787;SDS011;16074;42.708;23.312;2023-08-08T04:10:07;8.98;;;8.27;;
787;SDS011;16074;42.708;23.312;2023-08-08T04:12:35;10.52;;;9.52;;
787;SDS011;16074;42.708;23.312;2023-08-08T04:15:04;10.60;;;9.70;;
787;SDS011;16074;42.708;23.312;2023-08-08T04:17:33;10.18;;;9.48;;
787;SDS011;16074;42.708;23.312;2023-08-08T04:20:01;10.80;;;10.02;;
787;SDS011;16074;42.708;23.312;2023-08-08T04:22:32;10.82;;;10.13;;
787;SDS011;16074;42.708;23.312;2023-08-08T04:25:00;10.77;;;9.98;;
787;SDS011;16074;42.708;23.312;2023-08-08T04:27:30;10.90;;;9.80;;
787;SDS011;16074;42.708;23.312;2023-08-08T04:29:58;9.13;;;8.52;;
787;SDS011;16074;42.708;23.312;2023-08-08T04:32:26;10.90;;;10.10;;
787;SDS011;16074;42.708;23.312;2023-08-08T04:34:55;10.65;;;9.88;;
787;SDS011;16074;42.708;23.312;2023-08-08T04:37:23;8.90;;;8.30;;
787;SDS011;16074;42.708;23.312;2023-08-08T04:39:51;10.47;;;9.77;;
787;SDS011;16074;42.708;23.312;2023-08-08T04:42:20;10.10;;;9.35;;
787;SDS011;16074;42.708;23.312;2023-08-08T04:44:50;10.90;;;9.90;;
787;SDS011;16074;42.708;23.312;2023-08-08T04:47:18;10.80;;;10.02;;
787;SDS011;16074;42.708;23.312;2023-08-08T04:49:46;9.48;;;8.75;;
787;SDS011;16074;42.708;23.312;2023-08-08T04:52:14;10.60;;;9.90;;
787;SDS011;16074;42.708;23.312;2023-08-08T04:54:43;10.00;;;9.05;;
787;SDS011;16074;42.708;23.312;2023-08-08T04:57:11;10.37;;;9.53;;
787;SDS011;16074;42.708;23.312;2023-08-08T04:59:40;9.50;;;8.80;;
787;SDS011;16074;42.708;23.312;2023-08-08T05:02:10;10.30;;;9.07;;
787;SDS011;16074;42.708;23.312;2023-08-08T05:04:39;10.50;;;9.70;;
787;SDS011;16074;42.708;23.312;2023-08-08T05:07:07;10.43;;;9.73;;
787;SDS011;16074;42.708;23.312;2023-08-08T05:09:35;12.13;;;11.13;;
787;SDS011;16074;42.708;23.312;2023-08-08T05:12:04;11.00;;;10.20;;
787;SDS011;16074;42.708;23.312;2023-08-08T05:14:33;9.90;;;9.25;;
787;SDS011;16074;42.708;23.312;2023-08-08T05:17:01;10.10;;;9.35;;
787;SDS011;16074;42.708;23.312;2023-08-08T05:19:32;8.73;;;8.10;;
787;SDS011;16074;42.708;23.312;2023-08-08T05:22:00;8.05;;;7.55;;
787;SDS011;16074;42.708;23.312;2023-08-08T05:24:28;9.20;;;8.60;;
787;SDS011;16074;42.708;23.312;2023-08-08T05:26:57;7.82;;;7.30;;
787;SDS011;16074;42.708;23.312;2023-08-08T05:29:25;8.70;;;8.00;;
787;SDS011;16074;42.708;23.312;2023-08-08T05:31:53;9.90;;;8.75;;
787;SDS011;16074;42.708;23.312;2023-08-08T05:34:22;7.37;;;6.87;;
787;SDS011;16074;42.708;23.312;2023-08-08T05:36:53;7.27;;;6.77;;
787;SDS011;16074;42.708;23.312;2023-08-08T05:39:41;7.33;;;6.63;;
787;SDS011;16074;42.708;23.312;2023-08-08T05:42:09;7.30;;;6.80;;
787;SDS011;16074;42.708;23.312;2023-08-08T05:44:38;7.63;;;6.90;;
787;SDS011;16074;42.708;23.312;2023-08-08T05:47:08;7.43;;;6.93;;
787;SDS011;16074;42.708;23.312;2023-08-08T05:49:38;7.33;;;6.57;;
787;SDS011;16074;42.708;23.312;2023-08-08T05:52:09;8.97;;;6.40;;
787;SDS011;16074;42.708;23.312;2023-08-08T05:54:38;6.83;;;6.33;;
787;SDS011;16074;42.708;23.312;2023-08-08T05:57:06;7.00;;;6.50;;
787;SDS011;16074;42.708;23.312;2023-08-08T05:59:35;7.17;;;6.67;;
787;SDS011;16074;42.708;23.312;2023-08-08T06:02:03;7.77;;;7.27;;
787;SDS011;16074;42.708;23.312;2023-08-08T06:04:32;7.77;;;7.17;;
787;SDS011;16074;42.708;23.312;2023-08-08T06:07:00;8.57;;;7.77;;
787;SDS011;16074;42.708;23.312;2023-08-08T06:09:30;7.53;;;7.07;;
787;SDS011;16074;42.708;23.312;2023-08-08T06:11:59;7.47;;;6.97;;
787;SDS011;16074;42.708;23.312;2023-08-08T06:14:28;15.73;;;7.30;;
787;SDS011;16074;42.708;23.312;2023-08-08T06:16:56;8.17;;;7.67;;
787;SDS011;16074;42.708;23.312;2023-08-08T06:19:24;8.27;;;7.57;;
787;SDS011;16074;42.708;23.312;2023-08-08T06:21:52;7.10;;;6.60;;
787;SDS011;16074;42.708;23.312;2023-08-08T06:24:21;8.53;;;6.90;;
787;SDS011;16074;42.708;23.312;2023-08-08T06:26:50;6.70;;;6.30;;
787;SDS011;16074;42.708;23.312;2023-08-08T06:29:19;7.07;;;6.67;;
787;SDS011;16074;42.708;23.312;2023-08-08T06:31:47;7.20;;;6.80;;
787;SDS011;16074;42.708;23.312;2023-08-08T06:34:16;7.40;;;6.90;;
787;SDS011;16074;42.708;23.312;2023-08-08T06:36:44;8.33;;;7.80;;
787;SDS011;16074;42.708;23.312;2023-08-08T06:39:13;7.90;;;7.20;;
787;SDS011;16074;42.708;23.312;2023-08-08T06:42:02;7.63;;;7.10;;
787;SDS011;16074;42.708;23.312;2023-08-08T06:44:57;8.03;;;7.07;;
787;SDS011;16074;42.708;23.312;2023-08-08T06:47:25;7.00;;;6.60;;
787;SDS011;16074;42.708;23.312;2023-08-08T06:49:53;5.83;;;5.53;;
787;SDS011;16074;42.708;23.312;2023-08-08T06:52:21;6.13;;;5.63;;
787;SDS011;16074;42.708;23.312;2023-08-08T06:54:50;5.37;;;4.97;;
787;SDS011;16074;42.708;23.312;2023-08-08T06:57:19;4.90;;;4.70;;
787;SDS011;16074;42.708;23.312;2023-08-08T06:59:48;4.73;;;4.37;;
787;SDS011;16074;42.708;23.312;2023-08-08T07:02:18;4.30;;;4.00;;
787;SDS011;16074;42.708;23.312;2023-08-08T07:04:46;4.50;;;3.97;;
787;SDS011;16074;42.708;23.312;2023-08-08T07:07:14;5.63;;;4.30;;
787;SDS011;16074;42.708;23.312;2023-08-08T07:09:43;5.00;;;4.60;;
787;SDS011;16074;42.708;23.312;2023-08-08T07:12:11;4.60;;;4.30;;
787;SDS011;16074;42.708;23.312;2023-08-08T07:14:41;4.37;;;4.17;;
787;SDS011;16074;42.708;23.312;2023-08-08T07:17:09;4.20;;;3.80;;
787;SDS011;16074;42.708;23.312;2023-08-08T07:19:37;5.40;;;4.90;;
787;SDS011;16074;42.708;23.312;2023-08-08T07:22:06;3.87;;;3.67;;
787;SDS011;16074;42.708;23.312;2023-08-08T07:24:35;4.37;;;4.03;;
787;SDS011;16074;42.708;23.312;2023-08-08T07:27:05;4.37;;;4.10;;
787;SDS011;16074;42.708;23.312;2023-08-08T07:29:33;3.40;;;3.27;;
787;SDS011;16074;42.708;23.312;2023-08-08T07:32:04;3.90;;;3.70;;
787;SDS011;16074;42.708;23.312;2023-08-08T07:34:32;3.47;;;3.27;;
787;SDS011;16074;42.708;23.312;2023-08-08T07:37:01;3.90;;;3.60;;
787;SDS011;16074;42.708;23.312;2023-08-08T07:39:30;4.77;;;4.47;;
787;SDS011;16074;42.708;23.312;2023-08-08T07:41:59;4.03;;;3.73;;
787;SDS011;16074;42.708;23.312;2023-08-08T07:44:27;3.70;;;3.50;;
787;SDS011;16074;42.708;23.312;2023-08-08T07:46:56;3.13;;;2.93;;
787;SDS011;16074;42.708;23.312;2023-08-08T07:49:25;2.80;;;2.70;;
787;SDS011;16074;42.708;23.312;2023-08-08T07:51:54;3.90;;;3.60;;
787;SDS011;16074;42.708;23.312;2023-08-08T07:54:22;3.63;;;3.43;;
787;SDS011;16074;42.708;23.312;2023-08-08T07:56:50;2.97;;;2.87;;
787;SDS011;16074;42.708;23.312;2023-08-08T07:59:19;2.77;;;2.67;;
787;SDS011;16074;42.708;23.312;2023-08-08T08:01:47;2.77;;;2.67;;
787;SDS011;16074;42.708;23.312;2023-08-08T08:04:15;3.73;;;3.43;;
787;SDS011;16074;42.708;23.312;2023-08-08T08:06:45;3.13;;;2.93;;
787;SDS011;16074;42.708;23.312;2023-08-08T08:09:14;3.30;;;3.20;;
787;SDS011;16074;42.708;23.312;2023-08-08T08:11:42;3.53;;;3.33;;
787;SDS011;16074;42.708;23.312;2023-08-08T08:14:10;2.70;;;2.60;;
787;SDS011;16074;42.708;23.312;2023-08-08T08:16:38;2.90;;;2.80;;
787;SDS011;16074;42.708;23.312;2023-08-08T08:19:07;3.03;;;2.83;;
787;SDS011;16074;42.708;23.312;2023-08-08T08:21:36;2.90;;;2.80;;
787;SDS011;16074;42.708;23.312;2023-08-08T08:24:06;2.60;;;2.40;;
787;SDS011;16074;42.708;23.312;2023-08-08T08:26:34;2.87;;;2.77;;
787;SDS011;16074;42.708;23.312;2023-08-08T08:29:03;2.90;;;2.80;;
787;SDS011;16074;42.708;23.312;2023-08-08T08:31:31;2.80;;;2.60;;
787;SDS011;16074;42.708;23.312;2023-08-08T08:33:59;2.50;;;2.40;;
787;SDS011;16074;42.708;23.312;2023-08-08T08:36:28;3.60;;;3.40;;
787;SDS011;16074;42.708;23.312;2023-08-08T08:38:56;3.60;;;3.40;;
787;SDS011;16074;42.708;23.312;2023-08-08T08:41:27;3.50;;;3.20;;
787;SDS011;16074;42.708;23.312;2023-08-08T08:43:56;3.13;;;2.80;;
787;SDS011;16074;42.708;23.312;2023-08-08T08:46:24;3.90;;;3.70;;
787;SDS011;16074;42.708;23.312;2023-08-08T08:48:54;6.97;;;3.90;;
787;SDS011;16074;42.708;23.312;2023-08-08T08:51:23;3.33;;;3.10;;
787;SDS011;16074;42.708;23.312;2023-08-08T08:53:51;3.70;;;3.50;;
787;SDS011;16074;42.708;23.312;2023-08-08T08:56:20;3.97;;;3.77;;
787;SDS011;16074;42.708;23.312;2023-08-08T08:58:51;3.63;;;3.53;;
787;SDS011;16074;42.708;23.312;2023-08-08T09:01:19;3.30;;;2.87;;
787;SDS011;16074;42.708;23.312;2023-08-08T09:03:49;3.50;;;3.30;;
787;SDS011;16074;42.708;23.312;2023-08-08T09:06:18;2.50;;;2.30;;
787;SDS011;16074;42.708;23.312;2023-08-08T09:08:47;2.73;;;2.63;;
787;SDS011;16074;42.708;23.312;2023-08-08T09:11:19;3.40;;;3.10;;
787;SDS011;16074;42.708;23.312;2023-08-08T09:13:47;4.50;;;3.40;;
787;SDS011;16074;42.708;23.312;2023-08-08T09:16:17;3.03;;;2.90;;
787;SDS011;16074;42.708;23.312;2023-08-08T09:18:45;3.57;;;3.37;;
787;SDS011;16074;42.708;23.312;2023-08-08T09:21:14;3.27;;;3.00;;
787;SDS011;16074;42.708;23.312;2023-08-08T09:23:43;3.40;;;3.20;;
787;SDS011;16074;42.708;23.312;2023-08-08T09:26:12;3.43;;;3.23;;
787;SDS011;16074;42.708;23.312;2023-08-08T09:28:43;3.10;;;3.00;;
787;SDS011;16074;42.708;23.312;2023-08-08T09:31:11;3.23;;;3.13;;
787;SDS011;16074;42.708;23.312;2023-08-08T09:33:41;3.00;;;2.90;;
787;SDS011;16074;42.708;23.312;2023-08-08T09:36:13;3.47;;;3.27;;
787;SDS011;16074;42.708;23.312;2023-08-08T09:38:42;4.10;;;3.90;;
787;SDS011;16074;42.708;23.312;2023-08-08T09:41:10;3.50;;;3.30;;
787;SDS011;16074;42.708;23.312;2023-08-08T09:43:39;3.80;;;3.70;;
787;SDS011;16074;42.708;23.312;2023-08-08T09:46:08;3.50;;;3.40;;
787;SDS011;16074;42.708;23.312;2023-08-08T09:48:36;3.90;;;3.70;;
787;SDS011;16074;42.708;23.312;2023-08-08T09:51:08;4.00;;;3.77;;
787;SDS011;16074;42.708;23.312;2023-08-08T09:53:36;4.10;;;3.90;;
787;SDS011;16074;42.708;23.312;2023-08-08T09:56:07;3.50;;;3.40;;
787;SDS011;16074;42.708;23.312;2023-08-08T09:58:35;3.93;;;3.73;;
787;SDS011;16074;42.708;23.312;2023-08-08T10:01:04;4.57;;;4.20;;
787;SDS011;16074;42.708;23.312;2023-08-08T10:03:33;4.90;;;4.70;;
787;SDS011;16074;42.708;23.312;2023-08-08T10:06:04;5.10;;;4.80;;
787;SDS011;16074;42.708;23.312;2023-08-08T10:08:34;4.87;;;4.40;;
787;SDS011;16074;42.708;23.312;2023-08-08T10:11:03;4.20;;;3.90;;
787;SDS011;16074;42.708;23.312;2023-08-08T10:13:33;3.60;;;3.40;;
787;SDS011;16074;42.708;23.312;2023-08-08T10:16:04;3.53;;;3.40;;
787;SDS011;16074;42.708;23.312;2023-08-08T10:18:35;4.67;;;4.27;;
787;SDS011;16074;42.708;23.312;2023-08-08T10:21:04;3.70;;;3.60;;
787;SDS011;16074;42.708;23.312;2023-08-08T10:23:37;3.70;;;3.50;;
787;SDS011;16074;42.708;23.312;2023-08-08T10:26:16;3.57;;;3.33;;
787;SDS011;16074;42.708;23.312;2023-08-08T10:28:52;3.50;;;3.30;;
787;SDS011;16074;42.708;23.312;2023-08-08T10:31:25;3.50;;;3.40;;
787;SDS011;16074;42.708;23.312;2023-08-08T10:34:01;3.40;;;3.20;;
787;SDS011;16074;42.708;23.312;2023-08-08T10:39:20;4.83;;;3.70;;
787;SDS011;16074;42.708;23.312;2023-08-08T10:41:49;2.90;;;2.80;;
787;SDS011;16074;42.708;23.312;2023-08-08T10:44:22;3.10;;;3.00;;
787;SDS011;16074;42.708;23.312;2023-08-08T10:46:52;3.23;;;3.13;;
787;SDS011;16074;42.708;23.312;2023-08-08T10:49:23;2.90;;;2.70;;
787;SDS011;16074;42.708;23.312;2023-08-08T10:51:52;2.80;;;2.70;;
787;SDS011;16074;42.708;23.312;2023-08-08T10:54:24;2.57;;;2.47;;
787;SDS011;16074;42.708;23.312;2023-08-08T10:56:58;2.40;;;2.30;;
787;SDS011;16074;42.708;23.312;2023-08-08T10:59:27;2.47;;;2.47;;
787;SDS011;16074;42.708;23.312;2023-08-08T11:02:03;2.73;;;2.63;;
787;SDS011;16074;42.708;23.312;2023-08-08T11:04:32;3.00;;;2.90;;
787;SDS011;16074;42.708;23.312;2023-08-08T11:07:01;4.60;;;2.93;;
787;SDS011;16074;42.708;23.312;2023-08-08T11:09:32;2.87;;;2.77;;
787;SDS011;16074;42.708;23.312;2023-08-08T11:12:00;2.80;;;2.70;;
787;SDS011;16074;42.708;23.312;2023-08-08T11:14:29;3.27;;;3.07;;
787;SDS011;16074;42.708;23.312;2023-08-08T11:16:58;2.80;;;2.70;;
787;SDS011;16074;42.708;23.312;2023-08-08T11:19:27;2.87;;;2.67;;
787;SDS011;16074;42.708;23.312;2023-08-08T11:21:56;3.10;;;3.00;;
787;SDS011;16074;42.708;23.312;2023-08-08T11:24:24;3.17;;;2.97;;
787;SDS011;16074;42.708;23.312;2023-08-08T11:26:57;3.43;;;3.33;;
787;SDS011;16074;42.708;23.312;2023-08-08T11:29:26;6.17;;;3.00;;
787;SDS011;16074;42.708;23.312;2023-08-08T11:31:58;3.53;;;2.40;;
787;SDS011;16074;42.708;23.312;2023-08-08T11:34:30;3.03;;;2.73;;
787;SDS011;16074;42.708;23.312;2023-08-08T11:36:59;2.43;;;2.33;;
787;SDS011;16074;42.708;23.312;2023-08-08T11:39:28;3.70;;;2.50;;
787;SDS011;16074;42.708;23.312;2023-08-08T11:41:58;3.27;;;3.00;;
787;SDS011;16074;42.708;23.312;2023-08-08T11:44:28;2.80;;;2.70;;
787;SDS011;16074;42.708;23.312;2023-08-08T11:46:59;3.43;;;3.10;;
787;SDS011;16074;42.708;23.312;2023-08-08T11:49:28;2.80;;;2.70;;
787;SDS011;16074;42.708;23.312;2023-08-08T11:51:57;2.87;;;2.60;;
787;SDS011;16074;42.708;23.312;2023-08-08T11:54:27;3.00;;;2.80;;
787;SDS011;16074;42.708;23.312;2023-08-08T11:56:55;3.00;;;2.80;;
787;SDS011;16074;42.708;23.312;2023-08-08T11:59:25;2.80;;;2.70;;
787;SDS011;16074;42.708;23.312;2023-08-08T12:01:53;2.27;;;2.17;;
787;SDS011;16074;42.708;23.312;2023-08-08T12:04:24;2.43;;;2.33;;
787;SDS011;16074;42.708;23.312;2023-08-08T12:07:00;2.27;;;2.27;;
787;SDS011;16074;42.708;23.312;2023-08-08T12:09:31;2.47;;;2.47;;
787;SDS011;16074;42.708;23.312;2023-08-08T12:12:02;2.23;;;2.13;;
787;SDS011;16074;42.708;23.312;2023-08-08T12:14:38;2.80;;;2.70;;
787;SDS011;16074;42.708;23.312;2023-08-08T12:17:17;2.70;;;2.60;;
787;SDS011;16074;42.708;23.312;2023-08-08T12:19:46;2.20;;;2.20;;
787;SDS011;16074;42.708;23.312;2023-08-08T12:22:15;2.87;;;2.77;;
787;SDS011;16074;42.708;23.312;2023-08-08T12:24:43;2.70;;;2.60;;
787;SDS011;16074;42.708;23.312;2023-08-08T12:27:11;2.60;;;2.00;;
787;SDS011;16074;42.708;23.312;2023-08-08T12:29:41;2.87;;;2.77;;
787;SDS011;16074;42.708;23.312;2023-08-08T12:32:09;2.50;;;2.40;;
787;SDS011;16074;42.708;23.312;2023-08-08T12:34:38;2.60;;;2.40;;
787;SDS011;16074;42.708;23.312;2023-08-08T12:37:06;3.10;;;2.67;;
787;SDS011;16074;42.708;23.312;2023-08-08T12:39:34;2.80;;;2.60;;
787;SDS011;16074;42.708;23.312;2023-08-08T12:42:03;2.63;;;2.53;;
787;SDS011;16074;42.708;23.312;2023-08-08T12:44:31;2.10;;;2.10;;
787;SDS011;16074;42.708;23.312;2023-08-08T12:47:01;2.57;;;2.53;;
787;SDS011;16074;42.708;23.312;2023-08-08T12:49:29;2.57;;;2.47;;
787;SDS011;16074;42.708;23.312;2023-08-08T12:51:58;2.63;;;2.50;;
787;SDS011;16074;42.708;23.312;2023-08-08T12:54:26;2.90;;;2.80;;
787;SDS011;16074;42.708;23.312;2023-08-08T12:56:55;3.10;;;2.90;;
787;SDS011;16074;42.708;23.312;2023-08-08T12:59:23;3.70;;;2.67;;
787;SDS011;16074;42.708;23.312;2023-08-08T13:01:51;2.60;;;2.40;;
787;SDS011;16074;42.708;23.312;2023-08-08T13:04:21;2.60;;;2.50;;
787;SDS011;16074;42.708;23.312;2023-08-08T13:06:49;2.60;;;2.40;;
787;SDS011;16074;42.708;23.312;2023-08-08T13:09:18;2.20;;;2.20;;
787;SDS011;16074;42.708;23.312;2023-08-08T13:11:46;2.13;;;2.13;;
787;SDS011;16074;42.708;23.312;2023-08-08T13:14:14;2.60;;;2.50;;
787;SDS011;16074;42.708;23.312;2023-08-08T13:16:43;2.17;;;2.07;;
787;SDS011;16074;42.708;23.312;2023-08-08T13:19:12;2.50;;;2.40;;
787;SDS011;16074;42.708;23.312;2023-08-08T13:21:43;2.40;;;2.20;;
787;SDS011;16074;42.708;23.312;2023-08-08T13:24:11;2.33;;;2.23;;
787;SDS011;16074;42.708;23.312;2023-08-08T13:26:40;3.40;;;2.83;;
787;SDS011;16074;42.708;23.312;2023-08-08T13:29:08;2.30;;;2.30;;
787;SDS011;16074;42.708;23.312;2023-08-08T13:31:36;2.87;;;2.70;;
787;SDS011;16074;42.708;23.312;2023-08-08T13:34:05;3.10;;;2.83;;
787;SDS011;16074;42.708;23.312;2023-08-08T13:36:33;1.90;;;1.90;;
787;SDS011;16074;42.708;23.312;2023-08-08T13:39:03;2.60;;;2.50;;
787;SDS011;16074;42.708;23.312;2023-08-08T13:41:31;2.30;;;2.30;;
787;SDS011;16074;42.708;23.312;2023-08-08T13:44:00;4.33;;;2.20;;
787;SDS011;16074;42.708;23.312;2023-08-08T13:46:28;2.70;;;2.30;;
787;SDS011;16074;42.708;23.312;2023-08-08T13:48:56;3.30;;;2.60;;
787;SDS011;16074;42.708;23.312;2023-08-08T13:51:25;2.70;;;2.60;;
787;SDS011;16074;42.708;23.312;2023-08-08T13:53:53;2.40;;;2.40;;
787;SDS011;16074;42.708;23.312;2023-08-08T13:56:23;2.20;;;2.20;;
787;SDS011;16074;42.708;23.312;2023-08-08T13:58:51;2.57;;;2.47;;
787;SDS011;16074;42.708;23.312;2023-08-08T14:01:19;2.10;;;2.10;;
787;SDS011;16074;42.708;23.312;2023-08-08T14:03:47;2.03;;;2.03;;
787;SDS011;16074;42.708;23.312;2023-08-08T14:06:16;2.50;;;2.40;;
787;SDS011;16074;42.708;23.312;2023-08-08T14:08:44;2.60;;;2.50;;
787;SDS011;16074;42.708;23.312;2023-08-08T14:11:13;2.27;;;2.20;;
787;SDS011;16074;42.708;23.312;2023-08-08T14:13:43;2.63;;;2.53;;
787;SDS011;16074;42.708;23.312;2023-08-08T14:16:11;2.03;;;2.03;;
787;SDS011;16074;42.708;23.312;2023-08-08T14:18:40;2.43;;;2.00;;
787;SDS011;16074;42.708;23.312;2023-08-08T14:21:09;2.73;;;2.63;;
787;SDS011;16074;42.708;23.312;2023-08-08T14:23:37;1.97;;;1.87;;
787;SDS011;16074;42.708;23.312;2023-08-08T14:26:06;2.33;;;2.33;;
787;SDS011;16074;42.708;23.312;2023-08-08T14:28:34;1.97;;;1.97;;
787;SDS011;16074;42.708;23.312;2023-08-08T14:31:04;3.00;;;2.80;;
787;SDS011;16074;42.708;23.312;2023-08-08T14:33:32;2.23;;;2.23;;
787;SDS011;16074;42.708;23.312;2023-08-08T14:36:01;2.60;;;2.50;;
787;SDS011;16074;42.708;23.312;2023-08-08T14:38:33;2.47;;;2.37;;
787;SDS011;16074;42.708;23.312;2023-08-08T14:41:02;2.70;;;2.47;;
787;SDS011;16074;42.708;23.312;2023-08-08T14:43:31;2.70;;;2.40;;
787;SDS011;16074;42.708;23.312;2023-08-08T14:46:00;3.20;;;2.80;;
787;SDS011;16074;42.708;23.312;2023-08-08T14:48:29;1.97;;;1.97;;
787;SDS011;16074;42.708;23.312;2023-08-08T14:50:59;3.73;;;2.27;;
787;SDS011;16074;42.708;23.312;2023-08-08T14:53:28;2.47;;;2.37;;
787;SDS011;16074;42.708;23.312;2023-08-08T14:55:56;2.30;;;2.20;;
787;SDS011;16074;42.708;23.312;2023-08-08T14:58:24;2.43;;;2.43;;
787;SDS011;16074;42.708;23.312;2023-08-08T15:00:52;2.47;;;2.37;;
787;SDS011;16074;42.708;23.312;2023-08-08T15:03:21;2.43;;;2.33;;
787;SDS011;16074;42.708;23.312;2023-08-08T15:05:51;2.30;;;2.30;;
787;SDS011;16074;42.708;23.312;2023-08-08T15:08:19;1.93;;;1.83;;
787;SDS011;16074;42.708;23.312;2023-08-08T15:10:51;2.33;;;2.20;;
787;SDS011;16074;42.708;23.312;2023-08-08T15:13:19;1.90;;;1.80;;
787;SDS011;16074;42.708;23.312;2023-08-08T15:15:48;2.63;;;2.53;;